Time;durP1;ratioP1;P1;durP2;ratioP2;P2;SDS_P1;SDS_P2;PMS_P1;PMS_P2;Temp;Humidity;BMP_temperature;BMP_pressure;BME280_temperature;BME280_humidity;BME280_pressure;Samples;Min_cycle;Max_cycle;Signal;HPM_P1;HPM_P2
2021/06/28 00:02:08;;;;;;;13.00;6.05;;;;;;;20.81;93.06;100664.40;1758854;79;21503;-59
2021/06/28 00:04:35;;;;;;;10.72;5.83;;;;;;;20.78;93.22;100679.60;1743787;79;21463;-59
2021/06/28 00:07:02;;;;;;;10.70;6.58;;;;;;;20.75;93.51;100677.13;1760450;78;20893;-58
2021/06/28 00:09:29;;;;;;;9.98;6.30;;;;;;;20.71;93.66;100672.41;1754922;79;20917;-58
2021/06/28 00:11:57;;;;;;;11.05;5.72;;;;;;;20.66;93.81;100679.20;1758654;80;20940;-60
2021/06/28 00:14:23;;;;;;;12.68;6.33;;;;;;;20.60;94.01;100670.53;1762832;78;21275;-65
2021/06/28 00:16:52;;;;;;;11.43;6.53;;;;;;;20.56;94.38;100677.22;1756027;79;21081;-66
2021/06/28 00:19:18;;;;;;;10.50;6.10;;;;;;;20.53;94.56;100678.82;1753927;79;21060;-66
2021/06/28 00:21:46;;;;;;;10.43;5.78;;;;;;;20.51;94.80;100681.28;1694655;82;21062;-63
2021/06/28 00:24:13;;;;;;;9.88;6.15;;;;;;;20.46;95.01;100677.58;1749086;79;20964;-67
2021/06/28 00:26:40;;;;;;;11.03;6.42;;;;;;;20.42;95.35;100674.70;1758056;79;21423;-66
2021/06/28 00:29:06;;;;;;;9.43;5.87;;;;;;;20.38;95.69;100684.09;1759016;80;21073;-65
2021/06/28 00:31:34;;;;;;;12.98;6.30;;;;;;;20.31;96.01;100680.50;1776141;78;21039;-65
2021/06/28 00:34:01;;;;;;;13.45;6.83;;;;;;;20.26;96.37;100691.36;1781578;78;21063;-65
2021/06/28 00:36:27;;;;;;;16.20;6.37;;;;;;;20.21;96.86;100682.69;1793532;78;21016;-64
2021/06/28 00:38:55;;;;;;;9.80;6.10;;;;;;;20.17;97.29;100687.48;1781681;77;20936;-65
2021/06/28 00:41:22;;;;;;;14.73;5.80;;;;;;;20.14;97.65;100689.97;1786636;78;21249;-66
2021/06/28 00:43:48;;;;;;;13.95;6.28;;;;;;;20.12;98.05;100695.14;1774080;78;20897;-66
2021/06/28 00:46:15;;;;;;;10.35;6.20;;;;;;;20.08;98.42;100689.05;1778815;78;21001;-67
2021/06/28 00:48:41;;;;;;;13.80;6.30;;;;;;;20.06;98.76;100695.63;1775223;78;20909;-64
2021/06/28 00:51:08;;;;;;;12.35;6.33;;;;;;;20.03;99.11;100696.23;1783721;78;21612;-66
2021/06/28 00:53:36;;;;;;;8.15;6.00;;;;;;;20.03;99.17;100702.16;1797901;77;21167;-59
2021/06/28 00:56:12;;;;;;;11.43;5.78;;;;;;;19.98;99.22;100697.05;1784397;78;21505;-59
2021/06/28 00:58:40;;;;;;;13.78;5.95;;;;;;;19.97;99.31;100696.67;1791472;77;20937;-59
2021/06/28 01:01:07;;;;;;;13.00;5.87;;;;;;;19.94;99.50;100699.63;1785927;78;20960;-60
2021/06/28 01:03:35;;;;;;;10.23;5.50;;;;;;;19.92;99.61;100702.97;1789357;77;21434;-59
2021/06/28 01:06:02;;;;;;;10.82;5.65;;;;;;;19.92;99.72;100704.33;1773839;78;22170;-58
2021/06/28 01:08:29;;;;;;;14.07;6.28;;;;;;;19.90;99.70;100699.47;1784323;78;20958;-58
2021/06/28 01:10:57;;;;;;;18.40;6.33;;;;;;;19.90;99.86;100699.47;1739955;78;21071;-59
2021/06/28 01:13:25;;;;;;;14.33;7.03;;;;;;;19.85;99.91;100701.67;1784829;78;21012;-58
2021/06/28 01:15:53;;;;;;;10.40;6.45;;;;;;;19.82;100.00;100693.23;1780816;78;20921;-59
2021/06/28 01:18:20;;;;;;;9.83;5.97;;;;;;;19.77;100.00;100692.72;1773971;78;20968;-59
2021/06/28 01:20:46;;;;;;;15.28;6.28;;;;;;;19.71;100.00;100692.68;1796445;77;20980;-59
2021/06/28 01:23:28;;;;;;;10.10;6.35;;;;;;;19.67;100.00;100695.26;1783291;78;21044;-61
2021/06/28 01:26:08;;;;;;;12.60;6.30;;;;;;;19.65;100.00;100706.75;1783509;78;21004;-58
2021/06/28 01:28:34;;;;;;;11.03;6.50;;;;;;;19.62;100.00;100704.26;1790025;78;21017;-58
2021/06/28 01:31:01;;;;;;;11.65;6.67;;;;;;;19.58;100.00;100702.75;1779512;77;21099;-58
2021/06/28 01:33:28;;;;;;;12.18;5.97;;;;;;;19.56;100.00;100704.22;1759679;79;20967;-58
2021/06/28 01:35:55;;;;;;;14.73;5.80;;;;;;;19.53;100.00;100703.56;1757961;80;21608;-58
2021/06/28 01:38:22;;;;;;;8.93;5.60;;;;;;;19.49;100.00;100707.02;1759262;80;21099;-59
2021/06/28 01:40:51;;;;;;;11.57;5.67;;;;;;;19.46;100.00;100705.37;1758676;80;21452;-64
2021/06/28 01:43:18;;;;;;;10.68;6.08;;;;;;;19.42;100.00;100706.59;1769002;80;21485;-65
2021/06/28 01:45:48;;;;;;;9.18;5.70;;;;;;;19.42;100.00;100712.50;1758407;80;20990;-65
2021/06/28 01:48:14;;;;;;;7.72;5.85;;;;;;;19.40;100.00;100707.67;1756908;79;21125;-65
2021/06/28 01:50:42;;;;;;;10.95;5.83;;;;;;;19.40;100.00;100712.64;1754979;80;20938;-59
2021/06/28 01:53:09;;;;;;;10.70;5.78;;;;;;;19.36;100.00;100707.52;1766193;80;21046;-63
2021/06/28 01:55:35;;;;;;;10.75;5.90;;;;;;;19.33;100.00;100713.56;1768389;79;21751;-64
2021/06/28 01:58:04;;;;;;;11.48;5.95;;;;;;;19.30;100.00;100712.91;1765157;79;20917;-66
2021/06/28 02:00:36;;;;;;;14.98;6.15;;;;;;;19.28;100.00;100717.59;1757632;80;21052;-66
2021/06/28 02:03:17;;;;;;;14.93;6.47;;;;;;;19.26;100.00;100716.84;1749371;80;21014;-65
2021/06/28 02:05:47;;;;;;;14.68;6.10;;;;;;;19.25;100.00;100715.10;1767345;79;21402;-66
2021/06/28 02:08:16;;;;;;;13.55;6.12;;;;;;;19.25;100.00;100715.10;1765756;80;21186;-67
2021/06/28 02:10:48;;;;;;;14.63;6.62;;;;;;;19.24;100.00;100705.20;1759434;80;20950;-64
2021/06/28 02:13:17;;;;;;;10.98;5.65;;;;;;;19.24;100.00;100720.16;1761010;80;21113;-65
2021/06/28 02:15:44;;;;;;;13.48;6.65;;;;;;;19.26;100.00;100726.35;1762998;80;21423;-64
2021/06/28 02:18:10;;;;;;;12.30;7.00;;;;;;;19.24;100.00;100725.59;1765570;79;21431;-65
2021/06/28 02:20:37;;;;;;;11.63;6.65;;;;;;;19.26;100.00;100719.55;1761692;80;21146;-65
2021/06/28 02:23:36;;;;;;;11.38;6.20;;;;;;;19.28;100.00;100721.20;1759638;79;21435;-65
2021/06/28 02:26:08;;;;;;;11.00;6.05;;;;;;;19.32;100.00;100721.82;1768047;79;20906;-66
2021/06/28 02:28:37;;;;;;;9.95;6.17;;;;;;;19.40;100.00;100726.70;1765074;80;21846;-66
2021/06/28 02:31:05;;;;;;;14.15;6.50;;;;;;;19.47;100.00;100717.14;1769303;80;21064;-66
2021/06/28 02:33:32;;;;;;;15.18;7.05;;;;;;;19.55;100.00;100727.42;1755388;80;21151;-67
2021/06/28 02:35:59;;;;;;;11.48;6.12;;;;;;;19.64;100.00;100726.77;1765591;80;20905;-66
2021/06/28 02:38:25;;;;;;;11.48;5.92;;;;;;;19.73;100.00;100728.79;1769468;80;21092;-66
2021/06/28 02:40:52;;;;;;;10.60;5.90;;;;;;;19.81;100.00;100728.22;1764579;80;21104;-67
2021/06/28 02:43:18;;;;;;;14.03;5.45;;;;;;;19.86;100.00;100733.33;1762524;80;21077;-67
2021/06/28 02:45:46;;;;;;;11.28;5.62;;;;;;;19.91;99.56;100731.16;1768672;80;21107;-66
2021/06/28 02:48:14;;;;;;;13.85;5.47;;;;;;;19.95;99.01;100733.17;1766412;80;20980;-66
2021/06/28 02:50:40;;;;;;;8.88;5.60;;;;;;;19.98;98.50;100735.14;1757375;79;20866;-66
2021/06/28 02:53:07;;;;;;;11.20;5.58;;;;;;;20.02;98.17;100744.84;1739689;80;21096;-66
2021/06/28 02:55:34;;;;;;;11.80;5.60;;;;;;;20.04;97.46;100739.27;1766593;80;21100;-66
2021/06/28 02:58:00;;;;;;;14.30;5.75;;;;;;;20.01;97.11;100739.02;1758941;80;21796;-65
2021/06/28 03:00:27;;;;;;;9.78;6.45;;;;;;;19.98;97.21;100743.30;1765651;80;21028;-67
2021/06/28 03:02:58;;;;;;;12.53;6.00;;;;;;;19.98;97.29;100746.03;1768096;80;21363;-64
2021/06/28 03:05:22;;;;;;;17.17;9.38;;;;;;;20.00;97.11;100741.34;1757369;80;21044;-66
2021/06/28 03:07:49;;;;;;;24.10;17.92;;;;;;;20.05;96.81;100738.28;1763464;80;21040;-65
2021/06/28 03:10:15;;;;;;;27.73;20.17;;;;;;;20.08;96.65;100746.20;1752949;80;21926;-68
2021/06/28 03:12:42;;;;;;;41.63;26.50;;;;;;;20.14;96.37;100747.60;1767969;80;21119;-66
2021/06/28 03:15:15;;;;;;;32.85;22.90;;;;;;;20.18;95.92;100747.74;1766890;80;20905;-65
2021/06/28 03:17:41;;;;;;;25.65;19.02;;;;;;;20.20;95.55;100755.30;1769335;79;20992;-65
2021/06/28 03:20:11;;;;;;;21.25;10.72;;;;;;;20.23;95.23;100756.45;1753172;79;21490;-68
2021/06/28 03:22:39;;;;;;;24.30;14.73;;;;;;;20.30;95.29;100750.91;1760009;80;21692;-64
2021/06/28 03:25:07;;;;;;;27.90;15.48;;;;;;;20.40;94.93;100754.27;1758520;80;20998;-64
2021/06/28 03:27:33;;;;;;;22.85;14.73;;;;;;;20.49;94.53;100749.97;1766350;80;21330;-65
2021/06/28 03:30:00;;;;;;;24.07;14.60;;;;;;;20.57;94.06;100751.12;1766572;80;20965;-65
2021/06/28 03:32:27;;;;;;;18.10;11.93;;;;;;;20.66;93.43;100747.30;1772802;79;21068;-66
2021/06/28 03:34:53;;;;;;;20.85;11.90;;;;;;;20.75;92.73;100757.48;1770676;78;21464;-66
2021/06/28 03:37:20;;;;;;;17.52;8.25;;;;;;;20.83;92.41;100759.14;1776062;79;20993;-67
2021/06/28 03:39:46;;;;;;;18.45;8.03;;;;;;;20.92;92.25;100761.64;1767926;79;20930;-66
2021/06/28 03:42:13;;;;;;;10.70;6.92;;;;;;;21.00;91.89;100759.20;1773154;78;21048;-66
2021/06/28 03:44:40;;;;;;;12.13;6.55;;;;;;;21.12;91.19;100766.89;1777513;78;20937;-66
2021/06/28 03:47:08;;;;;;;25.57;14.90;;;;;;;21.20;90.42;100772.22;1779980;78;21074;-66
2021/06/28 03:49:34;;;;;;;17.05;8.45;;;;;;;21.25;89.89;100769.98;1773321;78;21076;-67
2021/06/28 03:52:01;;;;;;;16.75;7.17;;;;;;;21.33;89.78;100775.67;1777015;79;20970;-67
2021/06/28 03:54:28;;;;;;;13.32;7.35;;;;;;;21.43;89.64;100771.23;1756062;78;20954;-66
2021/06/28 03:56:55;;;;;;;14.45;8.28;;;;;;;21.53;88.87;100780.02;1783920;78;20926;-64
2021/06/28 03:59:21;;;;;;;10.20;7.22;;;;;;;21.61;88.57;100774.83;1770071;79;21087;-65
2021/06/28 04:01:48;;;;;;;16.25;7.10;;;;;;;21.72;87.63;100776.19;1762790;78;21381;-65
2021/06/28 04:04:14;;;;;;;15.70;7.60;;;;;;;21.80;87.15;100784.27;1770200;78;20905;-65
2021/06/28 04:06:41;;;;;;;12.88;7.58;;;;;;;21.84;86.74;100789.84;1783218;78;21291;-65
2021/06/28 04:09:09;;;;;;;11.25;7.37;;;;;;;21.90;86.56;100787.95;1768941;78;21068;-66
2021/06/28 04:11:37;;;;;;;11.75;7.47;;;;;;;21.98;86.57;100782.72;1779606;78;21403;-68
2021/06/28 04:14:05;;;;;;;13.60;7.67;;;;;;;22.08;85.59;100788.80;1781377;79;20946;-68
2021/06/28 04:16:31;;;;;;;12.30;9.23;;;;;;;22.16;85.40;100790.37;1769276;78;20972;-58
2021/06/28 04:18:58;;;;;;;15.38;7.65;;;;;;;22.28;84.73;100803.01;1770184;78;20970;-68
2021/06/28 04:21:24;;;;;;;13.95;7.75;;;;;;;22.40;83.90;100800.22;1771447;78;21442;-67
2021/06/28 04:23:55;;;;;;;17.55;10.72;;;;;;;22.46;83.37;100795.63;1777288;78;21746;-68
2021/06/28 04:26:22;;;;;;;17.32;10.00;;;;;;;22.55;82.87;100805.79;1771002;78;21423;-68
2021/06/28 04:28:48;;;;;;;16.25;9.03;;;;;;;22.67;82.03;100807.13;1764394;78;21001;-67
2021/06/28 04:31:14;;;;;;;14.38;10.10;;;;;;;22.78;81.63;100811.15;1784100;78;21025;-69
2021/06/28 04:33:41;;;;;;;22.48;12.78;;;;;;;22.87;81.13;100810.34;1771271;78;21407;-66
2021/06/28 04:36:08;;;;;;;20.45;14.10;;;;;;;22.96;80.19;100805.94;1782530;79;21722;-66
2021/06/28 04:38:34;;;;;;;16.57;10.03;;;;;;;23.04;79.77;100818.95;1785244;79;20958;-69
2021/06/28 04:41:00;;;;;;;18.00;11.85;;;;;;;23.10;79.52;100825.27;1782565;78;20977;-67
2021/06/28 04:43:27;;;;;;;38.42;30.05;;;;;;;23.21;79.16;100822.08;1773144;78;21523;-67
2021/06/28 04:45:53;;;;;;;20.50;16.32;;;;;;;23.30;78.07;100829.50;1775822;78;20984;-68
2021/06/28 04:48:20;;;;;;;21.07;13.40;;;;;;;23.39;77.60;100825.08;1787322;78;21470;-67
2021/06/28 04:50:47;;;;;;;27.65;17.98;;;;;;;23.44;77.36;100819.58;1774289;78;21077;-67
2021/06/28 04:53:13;;;;;;;39.78;29.07;;;;;;;23.53;76.48;100833.43;1772145;78;20902;-67
2021/06/28 04:55:41;;;;;;;20.05;15.30;;;;;;;23.59;75.85;100824.17;1726757;79;21025;-67
2021/06/28 04:58:08;;;;;;;11.85;7.60;;;;;;;23.62;74.43;100836.73;1774838;78;21020;-67
2021/06/28 05:00:35;;;;;;;15.72;9.93;;;;;;;23.61;73.47;100822.69;1771126;79;21638;-69
2021/06/28 05:03:03;;;;;;;15.83;12.03;;;;;;;23.58;73.83;100838.87;1767850;79;21537;-68
2021/06/28 05:05:29;;;;;;;9.83;7.47;;;;;;;23.61;73.85;100818.58;1710037;81;21033;-69
2021/06/28 05:07:56;;;;;;;20.00;16.00;;;;;;;23.72;73.60;100832.16;1731591;81;21041;-67
2021/06/28 05:10:23;;;;;;;23.92;17.60;;;;;;;23.81;73.12;100818.66;1743135;81;20965;-66
2021/06/28 05:12:50;;;;;;;21.05;15.70;;;;;;;23.89;71.86;100825.17;1745126;81;21119;-67
2021/06/28 05:15:17;;;;;;;16.70;12.73;;;;;;;23.92;70.57;100830.86;1767043;78;21499;-68
2021/06/28 05:17:44;;;;;;;26.52;17.50;;;;;;;23.88;71.45;100823.93;1765188;79;21572;-68
2021/06/28 05:20:11;;;;;;;30.35;24.25;;;;;;;23.93;72.22;100830.37;1771967;78;21074;-68
2021/06/28 05:22:38;;;;;;;16.42;12.07;;;;;;;24.06;71.91;100833.73;1766594;78;21454;-67
2021/06/28 05:25:06;;;;;;;20.57;15.85;;;;;;;24.20;70.06;100831.09;1772703;79;21764;-70
2021/06/28 05:27:33;;;;;;;16.48;10.88;;;;;;;24.24;69.57;100840.78;1779267;78;20957;-67
2021/06/28 05:30:03;;;;;;;9.68;7.45;;;;;;;24.20;68.76;100840.68;1775133;78;21518;-69
2021/06/28 05:32:30;;;;;;;13.18;11.08;;;;;;;24.17;68.35;100840.97;1780977;78;21226;-68
2021/06/28 05:34:57;;;;;;;9.20;6.05;;;;;;;24.18;68.72;100848.17;1790559;78;21009;-65
2021/06/28 05:37:24;;;;;;;9.23;6.60;;;;;;;24.21;68.23;100841.56;1778770;79;21560;-66
2021/06/28 05:39:55;;;;;;;15.00;10.80;;;;;;;24.18;68.16;100850.42;1775759;78;21469;-67
2021/06/28 05:42:21;;;;;;;22.37;17.40;;;;;;;24.22;68.36;100856.50;1771938;79;21422;-69
2021/06/28 05:44:48;;;;;;;24.12;17.60;;;;;;;24.31;68.06;100839.69;1775476;78;21568;-68
2021/06/28 05:47:16;;;;;;;19.32;15.78;;;;;;;24.39;67.51;100843.98;1777115;78;20961;-69
2021/06/28 05:49:45;;;;;;;29.82;21.55;;;;;;;24.46;66.65;100877.16;1711526;82;21461;-68
2021/06/28 05:52:15;;;;;;;12.80;10.10;;;;;;;24.49;66.61;100850.84;1719095;82;21008;-68
2021/06/28 05:54:40;;;;;;;12.75;9.10;;;;;;;24.55;65.92;100850.26;1742787;80;21909;-69
2021/06/28 05:57:07;;;;;;;14.65;10.55;;;;;;;24.60;65.79;100854.80;1746756;81;21413;-68
2021/06/28 05:59:34;;;;;;;13.38;9.43;;;;;;;24.66;65.26;100858.00;1738316;81;21004;-68
2021/06/28 06:02:01;;;;;;;14.03;7.47;;;;;;;24.71;65.51;100852.95;1745345;80;21343;-68
2021/06/28 06:04:28;;;;;;;22.87;13.45;;;;;;;24.74;64.80;100852.12;1769997;79;21605;-68
2021/06/28 06:06:55;;;;;;;21.10;16.23;;;;;;;24.82;64.43;100863.78;1780692;78;21143;-68
2021/06/28 06:09:22;;;;;;;17.32;7.78;;;;;;;24.95;63.51;100864.01;1780709;78;21010;-68
2021/06/28 06:11:48;;;;;;;11.53;8.23;;;;;;;24.96;62.15;100867.11;1774279;78;21013;-67
2021/06/28 06:14:16;;;;;;;8.65;5.78;;;;;;;24.94;62.85;100870.50;1764574;79;21173;-67
2021/06/28 06:16:42;;;;;;;12.98;5.67;;;;;;;24.93;62.87;100874.26;1776057;79;21549;-68
2021/06/28 06:19:09;;;;;;;8.60;5.15;;;;;;;24.95;63.16;100873.61;1779584;79;20870;-67
2021/06/28 06:21:36;;;;;;;14.58;11.57;;;;;;;25.02;62.67;100872.00;1756938;78;21450;-68
2021/06/28 06:24:03;;;;;;;11.12;8.43;;;;;;;25.13;62.20;100873.23;1769168;79;20934;-70
2021/06/28 06:26:30;;;;;;;12.65;10.38;;;;;;;25.24;61.01;100890.04;1772739;78;21828;-68
2021/06/28 06:28:57;;;;;;;8.70;7.78;;;;;;;25.35;58.94;100882.15;1769121;78;21056;-67
2021/06/28 06:31:23;;;;;;;16.82;11.55;;;;;;;25.41;59.03;100878.80;1716635;82;20988;-71
2021/06/28 06:33:50;;;;;;;11.70;8.78;;;;;;;25.51;58.30;100882.93;1747144;81;21525;-68
2021/06/28 06:36:16;;;;;;;9.43;6.67;;;;;;;25.55;57.57;100884.36;1739918;80;21572;-68
2021/06/28 06:38:43;;;;;;;7.15;6.45;;;;;;;25.57;57.62;100892.45;1738016;80;21351;-69
2021/06/28 06:41:10;;;;;;;15.95;9.63;;;;;;;25.61;57.38;100884.28;1769309;78;20894;-67
2021/06/28 06:43:37;;;;;;;16.00;9.03;;;;;;;25.64;57.08;100889.46;1753736;78;21128;-69
2021/06/28 06:46:03;;;;;;;10.82;7.78;;;;;;;25.65;56.86;100888.97;1783731;78;21040;-68
2021/06/28 06:48:30;;;;;;;11.90;7.95;;;;;;;25.62;56.83;100891.50;1767399;78;21549;-69
2021/06/28 06:50:57;;;;;;;15.23;9.25;;;;;;;25.56;57.70;100883.87;1774707;78;21391;-68
2021/06/28 06:53:23;;;;;;;11.75;9.33;;;;;;;25.66;58.36;100884.69;1763278;78;20957;-67
2021/06/28 06:55:50;;;;;;;12.95;10.28;;;;;;;25.83;58.04;100892.63;1774993;79;21419;-67
2021/06/28 06:58:16;;;;;;;14.18;9.58;;;;;;;25.98;56.50;100888.03;1771862;78;20942;-67
2021/06/28 07:00:43;;;;;;;13.10;11.22;;;;;;;26.02;56.13;100897.20;1774501;78;21579;-68
2021/06/28 07:03:10;;;;;;;16.77;13.50;;;;;;;26.09;56.25;100900.20;1776023;78;21094;-68
2021/06/28 07:05:36;;;;;;;8.40;6.30;;;;;;;26.19;55.95;100894.66;1766825;80;21008;-69
2021/06/28 07:08:04;;;;;;;19.48;13.28;;;;;;;26.28;54.54;100897.89;1763819;78;21488;-68
2021/06/28 07:10:31;;;;;;;25.23;16.07;;;;;;;26.26;55.08;100894.43;1777158;78;21539;-65
2021/06/28 07:12:57;;;;;;;24.82;16.70;;;;;;;26.27;55.86;100898.91;1777744;78;21017;-68
2021/06/28 07:15:24;;;;;;;28.27;18.48;;;;;;;26.30;54.86;100901.34;1778013;79;21673;-67
2021/06/28 07:17:51;;;;;;;10.72;9.28;;;;;;;26.35;55.60;100891.77;1772583;78;20980;-66
2021/06/28 07:20:21;;;;;;;10.13;6.00;;;;;;;26.44;54.07;100905.45;1773409;78;21050;-67
2021/06/28 07:22:48;;;;;;;8.85;6.45;;;;;;;26.44;53.24;100901.85;1773141;78;21916;-66
2021/06/28 07:25:16;;;;;;;16.35;13.18;;;;;;;26.41;53.07;100907.63;1774820;78;21423;-66
2021/06/28 07:27:43;;;;;;;9.55;5.42;;;;;;;26.45;52.40;100914.58;1740650;80;21525;-66
2021/06/28 07:30:12;;;;;;;6.22;5.62;;;;;;;26.44;51.93;100907.34;1764416;78;20891;-65
2021/06/28 07:32:38;;;;;;;7.40;5.70;;;;;;;26.44;52.16;100913.70;1767998;78;21446;-66
2021/06/28 07:35:07;;;;;;;9.65;7.85;;;;;;;26.46;52.98;100899.81;1770919;80;21530;-65
2021/06/28 07:37:34;;;;;;;10.75;8.45;;;;;;;26.49;53.40;100918.73;1770819;80;20957;-65
2021/06/28 07:40:00;;;;;;;23.90;20.43;;;;;;;26.53;51.66;100904.19;1757266;80;21098;-65
2021/06/28 07:42:27;;;;;;;19.65;14.15;;;;;;;26.62;51.49;100892.73;1761050;80;21050;-63
2021/06/28 07:44:53;;;;;;;13.45;7.90;;;;;;;26.74;51.80;100908.00;1752141;80;21005;-59
2021/06/28 07:47:20;;;;;;;9.65;6.78;;;;;;;26.81;50.77;100897.24;1758706;80;21354;-58
2021/06/28 07:49:46;;;;;;;15.40;8.95;;;;;;;26.82;50.44;100906.69;1754964;80;21065;-64
2021/06/28 07:52:13;;;;;;;14.95;11.30;;;;;;;26.79;50.92;100897.39;1762974;80;21073;-65
2021/06/28 07:54:42;;;;;;;12.73;11.03;;;;;;;26.79;51.53;100896.01;1763737;80;21057;-63
2021/06/28 07:57:08;;;;;;;15.55;11.08;;;;;;;26.82;51.40;100894.31;1761678;80;21053;-62
2021/06/28 07:59:35;;;;;;;15.13;7.62;;;;;;;26.93;50.88;100889.65;1756444;80;20968;-64
2021/06/28 08:02:01;;;;;;;39.67;29.30;;;;;;;26.97;49.20;100886.92;1765079;80;21410;-62
2021/06/28 08:04:28;;;;;;;12.23;7.92;;;;;;;26.97;49.77;100897.93;1766943;80;21075;-63
2021/06/28 08:06:56;;;;;;;12.18;8.63;;;;;;;27.00;49.85;100897.61;1762671;80;20977;-63
2021/06/28 08:09:23;;;;;;;14.50;7.55;;;;;;;27.06;50.07;100888.71;1764654;80;21573;-63
2021/06/28 08:11:50;;;;;;;7.62;5.92;;;;;;;27.14;49.64;100900.30;1761660;80;21036;-65
2021/06/28 08:14:17;;;;;;;14.95;11.43;;;;;;;27.10;48.63;100897.03;1762143;80;21005;-64
2021/06/28 08:16:45;;;;;;;11.85;7.80;;;;;;;27.03;49.74;100888.54;1764557;80;21145;-63
2021/06/28 08:19:12;;;;;;;10.70;5.47;;;;;;;27.07;49.26;100913.83;1766386;80;20961;-64
2021/06/28 08:21:39;;;;;;;6.12;4.55;;;;;;;27.16;48.75;100907.39;1763998;80;20897;-63
2021/06/28 08:24:08;;;;;;;14.58;11.65;;;;;;;27.13;48.50;100910.46;1764164;80;21125;-64
2021/06/28 08:26:36;;;;;;;11.08;9.30;;;;;;;27.11;49.73;100901.51;1770005;80;21029;-65
2021/06/28 08:29:04;;;;;;;12.73;7.62;;;;;;;27.16;49.42;100904.64;1755271;80;21096;-65
2021/06/28 08:31:33;;;;;;;11.15;7.87;;;;;;;27.19;50.06;100906.22;1767723;80;20974;-62
2021/06/28 08:33:59;;;;;;;15.63;11.08;;;;;;;27.27;49.71;100909.52;1766695;79;21136;-64
2021/06/28 08:36:26;;;;;;;15.43;5.10;;;;;;;27.38;49.97;100905.15;1781085;78;21066;-65
2021/06/28 08:38:53;;;;;;;9.73;4.83;;;;;;;27.49;48.77;100908.65;1777754;79;21052;-65
2021/06/28 08:41:20;;;;;;;15.90;11.38;;;;;;;27.57;48.35;100919.77;1776627;78;21111;-65
2021/06/28 08:43:48;;;;;;;11.50;9.65;;;;;;;27.56;47.25;100916.66;1774182;78;21466;-66
2021/06/28 08:46:18;;;;;;;9.78;8.73;;;;;;;27.49;47.79;100916.91;1786019;78;21485;-66
2021/06/28 08:48:46;;;;;;;13.05;7.83;;;;;;;27.45;48.17;100911.73;1774855;79;20989;-69
2021/06/28 08:51:12;;;;;;;18.75;16.77;;;;;;;27.46;48.63;100921.71;1780798;78;22095;-67
2021/06/28 08:53:39;;;;;;;15.28;10.98;;;;;;;27.46;48.88;100920.33;1778958;78;21533;-67
2021/06/28 08:56:09;;;;;;;7.20;4.50;;;;;;;27.50;49.23;100925.02;1768213;78;21059;-67
2021/06/28 08:58:39;;;;;;;7.40;6.70;;;;;;;27.59;49.19;100920.47;1778612;78;21092;-67
2021/06/28 09:01:06;;;;;;;7.05;4.72;;;;;;;27.66;48.97;100928.42;1772314;78;20901;-66
2021/06/28 09:03:35;;;;;;;5.22;4.50;;;;;;;27.56;48.64;100934.56;1780488;79;20968;-67
2021/06/28 09:06:14;;;;;;;6.03;4.65;;;;;;;27.48;47.41;100919.31;1780575;78;21111;-68
2021/06/28 09:08:59;;;;;;;8.65;6.45;;;;;;;27.46;47.61;100921.71;1770931;79;20992;-68
2021/06/28 09:11:26;;;;;;;13.40;10.33;;;;;;;27.53;47.97;100930.76;1713496;81;20886;-65
2021/06/28 09:13:55;;;;;;;18.07;13.40;;;;;;;27.59;48.05;100935.08;1741863;81;21098;-66
2021/06/28 09:16:29;;;;;;;18.17;16.20;;;;;;;27.62;46.39;100929.77;1750162;80;20930;-67
2021/06/28 09:19:18;;;;;;;21.17;17.65;;;;;;;27.54;46.87;100925.60;1740745;80;22001;-67
2021/06/28 09:21:53;;;;;;;6.97;6.25;;;;;;;27.48;46.72;100935.33;1742140;80;21089;-67
2021/06/28 09:24:47;;;;;;;7.47;6.03;;;;;;;27.46;47.70;100934.10;1739724;80;21339;-66
2021/06/28 09:27:20;;;;;;;12.00;9.10;;;;;;;27.46;47.02;100923.09;1738259;80;21001;-65
2021/06/28 09:29:57;;;;;;;8.65;4.90;;;;;;;27.46;48.30;100921.71;1712602;82;20918;-69
2021/06/28 09:32:24;;;;;;;24.37;19.60;;;;;;;27.50;48.54;100914.00;1719697;80;21882;-66
2021/06/28 09:34:53;;;;;;;8.53;5.55;;;;;;;27.52;48.08;100924.38;1726132;82;20965;-68
2021/06/28 09:37:25;;;;;;;7.25;3.98;;;;;;;27.49;48.29;100917.78;1730462;81;20965;-68
2021/06/28 09:39:57;;;;;;;9.23;6.87;;;;;;;27.51;48.83;100916.23;1729696;81;21510;-66
2021/06/28 09:42:27;;;;;;;23.40;17.73;;;;;;;27.50;48.32;100916.76;1762265;80;20950;-64
2021/06/28 09:45:16;;;;;;;6.40;5.45;;;;;;;27.50;48.44;100896.61;1769235;80;21661;-66
2021/06/28 09:47:43;;;;;;;6.50;4.15;;;;;;;27.60;48.02;100903.77;1754940;80;21518;-67
2021/06/28 09:50:21;;;;;;;5.58;4.42;;;;;;;27.68;47.38;100905.71;1757975;79;20941;-68
2021/06/28 09:52:52;;;;;;;10.00;8.55;;;;;;;27.71;47.94;100912.27;1770527;80;21210;-66
2021/06/28 09:55:25;;;;;;;8.95;6.85;;;;;;;27.68;48.26;100911.22;1751831;80;20957;-64
2021/06/28 09:58:14;;;;;;;11.03;7.12;;;;;;;27.65;48.23;100903.29;1759795;80;21130;-68
2021/06/28 10:00:47;;;;;;;9.55;4.97;;;;;;;27.63;49.19;100905.34;1763175;80;21103;-66
2021/06/28 10:03:37;;;;;;;7.00;4.17;;;;;;;27.74;49.18;100905.08;1765990;80;20944;-66
2021/06/28 10:08:53;;;;;;;6.72;4.33;;;;;;;27.87;47.63;100917.03;1754398;80;21539;-65
2021/06/28 10:11:22;;;;;;;9.70;4.78;;;;;;;27.90;48.24;100914.44;1763874;80;21790;-68
2021/06/28 10:13:58;;;;;;;7.78;3.95;;;;;;;27.95;48.26;100913.43;1764191;80;21495;-67
2021/06/28 10:16:28;;;;;;;4.33;3.90;;;;;;;27.97;47.77;100910.02;1765575;80;21414;-68
2021/06/28 10:18:55;;;;;;;7.90;4.47;;;;;;;28.04;47.43;100906.06;1758717;80;21342;-69
2021/06/28 10:21:22;;;;;;;5.03;4.22;;;;;;;28.11;47.78;100908.53;1763050;80;21000;-67
2021/06/28 10:23:49;;;;;;;6.87;4.20;;;;;;;28.21;47.82;100907.55;1760788;80;21153;-59
2021/06/28 10:26:17;;;;;;;6.12;5.30;;;;;;;28.27;47.88;100905.00;1761413;80;20982;-60
2021/06/28 10:28:44;;;;;;;8.85;7.72;;;;;;;28.33;46.60;100909.48;1756873;80;20941;-66
2021/06/28 10:31:11;;;;;;;9.63;6.92;;;;;;;28.27;46.77;100916.03;1758440;79;21585;-58
2021/06/28 10:33:38;;;;;;;6.17;4.97;;;;;;;28.18;47.69;100913.41;1761693;79;21049;-67
2021/06/28 10:36:12;;;;;;;5.87;4.20;;;;;;;28.16;47.35;100914.93;1767548;80;21848;-59
2021/06/28 10:38:52;;;;;;;9.45;8.18;;;;;;;28.10;47.27;100917.83;1754910;80;20990;-58
2021/06/28 10:41:46;;;;;;;8.90;6.10;;;;;;;28.06;47.65;100912.80;1761283;79;20996;-64
2021/06/28 10:44:15;;;;;;;10.03;5.10;;;;;;;28.08;47.75;100917.13;1764023;79;20988;-66
2021/06/28 10:46:51;;;;;;;10.15;5.03;;;;;;;28.16;48.32;100913.56;1758514;80;21097;-66
2021/06/28 10:49:45;;;;;;;13.58;8.93;;;;;;;28.26;48.09;100925.33;1731666;80;21060;-66
2021/06/28 10:52:42;;;;;;;10.70;8.05;;;;;;;28.23;46.78;100922.91;1701411;83;21061;-66
2021/06/28 10:55:23;;;;;;;5.80;4.45;;;;;;;28.18;47.16;100905.98;1763549;80;21632;-66
2021/06/28 10:57:55;;;;;;;5.25;3.67;;;;;;;28.21;45.82;100918.08;1761303;80;21423;-58
2021/06/28 11:01:01;;;;;;;9.80;5.20;;;;;;;28.24;45.45;100919.63;1761775;80;20995;-58
2021/06/28 11:03:33;;;;;;;6.12;5.53;;;;;;;28.23;45.40;100921.53;1761039;80;21801;-59
2021/06/28 11:06:22;;;;;;;6.97;5.70;;;;;;;28.22;45.75;100921.19;1759058;80;20891;-58
2021/06/28 11:09:08;;;;;;;13.45;12.03;;;;;;;28.21;46.32;100907.05;1767938;80;21763;-58
2021/06/28 11:11:50;;;;;;;8.88;5.83;;;;;;;28.23;46.03;100916.02;1752392;80;21447;-59
2021/06/28 11:14:26;;;;;;;7.25;4.35;;;;;;;28.18;46.53;100915.63;1767168;80;21378;-67
2021/06/28 11:17:08;;;;;;;8.05;4.10;;;;;;;28.19;46.26;100911.87;1694549;83;21812;-66
2021/06/28 11:20:03;;;;;;;15.48;13.83;;;;;;;28.25;44.88;100914.45;1697569;83;21635;-65
2021/06/28 11:22:31;;;;;;;25.32;20.77;;;;;;;28.29;44.58;100924.98;1754645;80;21024;-65
2021/06/28 11:25:12;;;;;;;10.95;9.85;;;;;;;28.24;44.04;100917.74;1761997;79;20899;-66
2021/06/28 11:27:48;;;;;;;10.05;8.80;;;;;;;28.22;42.88;100915.67;1761053;80;21083;-58
2021/06/28 11:30:19;;;;;;;9.05;6.62;;;;;;;28.26;44.37;100914.30;1761234;80;21569;-60